createdAt,value
2018-05-06T00:01:11.559Z,0.00
2018-05-06T00:02:45.771Z,0.00
2018-05-06T00:03:45.712Z,0.00
2018-05-06T00:05:41.027Z,0.00
2018-05-06T00:06:40.910Z,0.00
2018-05-06T00:08:36.180Z,0.00
2018-05-06T00:09:36.092Z,0.00
2018-05-06T00:11:31.422Z,0.00
2018-05-06T00:12:31.308Z,0.00
2018-05-06T00:14:26.573Z,0.00
2018-05-06T00:15:26.507Z,0.00
2018-05-06T00:17:21.816Z,0.00
2018-05-06T00:18:21.693Z,0.00
2018-05-06T00:20:17.035Z,0.00
2018-05-06T00:21:16.902Z,0.00
2018-05-06T00:23:12.204Z,0.00
2018-05-06T00:24:12.106Z,0.00
2018-05-06T00:26:07.419Z,0.00
2018-05-06T00:27:07.315Z,0.00
2018-05-06T00:29:02.592Z,0.00
2018-05-06T00:30:02.511Z,0.00
2018-05-06T00:31:58.702Z,0.00
2018-05-06T00:32:58.581Z,0.00
2018-05-06T00:33:58.531Z,0.00
2018-05-06T00:34:58.491Z,0.00
2018-05-06T00:35:58.437Z,0.00
2018-05-06T00:36:58.342Z,0.00
2018-05-06T00:37:58.269Z,0.00
2018-05-06T00:39:19.190Z,0.00
2018-05-06T00:39:58.135Z,0.00
2018-05-06T00:40:58.069Z,0.00
2018-05-06T00:41:58.002Z,0.00
2018-05-06T00:42:57.939Z,0.00
2018-05-06T00:43:57.896Z,0.00
2018-05-06T00:44:57.808Z,0.00
2018-05-06T00:45:57.756Z,0.00
2018-05-06T00:46:57.709Z,0.00
2018-05-06T00:47:57.627Z,0.00
2018-05-06T00:48:57.569Z,0.00
2018-05-06T00:49:57.499Z,0.00
2018-05-06T00:50:57.427Z,0.00
2018-05-06T00:52:18.354Z,0.00
2018-05-06T00:52:57.292Z,0.00
2018-05-06T00:53:57.247Z,0.00
2018-05-06T00:54:57.178Z,0.00
2018-05-06T00:55:57.104Z,0.00
2018-05-06T00:56:57.043Z,0.00
2018-05-06T00:57:56.979Z,0.00
2018-05-06T00:58:56.918Z,0.00
2018-05-06T00:59:56.850Z,0.00
2018-05-06T01:01:17.773Z,0.00
2018-05-06T01:01:56.730Z,0.00
2018-05-06T01:03:17.660Z,0.00
2018-05-06T01:03:56.603Z,0.00
2018-05-06T01:04:56.536Z,0.00
2018-05-06T01:05:56.456Z,0.00
2018-05-06T01:06:56.406Z,0.00
2018-05-06T01:07:56.341Z,0.00
2018-05-06T01:08:56.260Z,0.00
2018-05-06T01:09:56.200Z,0.00
2018-05-06T01:10:56.142Z,0.00
2018-05-06T01:11:56.075Z,0.00
2018-05-06T01:12:56.011Z,0.00
2018-05-06T01:14:16.939Z,0.00
2018-05-06T01:14:55.888Z,0.00
2018-05-06T01:17:29.893Z,0.00
2018-05-06T01:18:29.794Z,0.00
2018-05-06T01:20:25.045Z,0.00
2018-05-06T01:21:24.968Z,0.00
2018-05-06T01:22:24.900Z,0.00
2018-05-06T01:23:24.821Z,0.00
2018-05-06T01:24:24.765Z,0.00
2018-05-06T01:25:24.728Z,0.00
2018-05-06T01:26:24.644Z,0.00
2018-05-06T01:27:24.565Z,0.00
2018-05-06T01:28:24.511Z,0.57
2018-05-06T01:29:24.442Z,1.44
2018-05-06T01:30:24.382Z,3.45
2018-05-06T01:31:45.308Z,3.45
2018-05-06T01:32:24.254Z,3.84
2018-05-06T01:33:24.182Z,2.97
2018-05-06T01:34:24.140Z,3.17
2018-05-06T01:35:24.057Z,3.26
2018-05-06T01:36:23.994Z,2.59
2018-05-06T01:37:23.952Z,2.78
2018-05-06T01:38:23.855Z,3.36
2018-05-06T01:39:23.803Z,3.36
2018-05-06T01:40:23.731Z,2.88
2018-05-06T01:41:23.679Z,1.73
2018-05-06T01:42:23.598Z,0.00
2018-05-06T01:43:23.539Z,0.00
2018-05-06T01:44:23.473Z,0.00
2018-05-06T01:45:23.412Z,0.00
2018-05-06T01:46:23.353Z,0.57
2018-05-06T01:47:23.293Z,1.53
2018-05-06T01:48:23.211Z,1.92
2018-05-06T01:49:23.162Z,2.69
2018-05-06T01:50:23.102Z,3.64
2018-05-06T01:51:23.038Z,3.84
2018-05-06T01:52:43.953Z,3.36
2018-05-06T01:53:22.895Z,3.45
2018-05-06T01:54:22.830Z,3.07
2018-05-06T01:55:22.762Z,3.94
2018-05-06T01:56:43.684Z,4.51
2018-05-06T01:57:22.649Z,5.38
2018-05-06T01:58:22.561Z,5.57
2018-05-06T01:59:22.512Z,5.95
2018-05-06T02:00:22.431Z,5.76
2018-05-06T02:01:22.387Z,6.15
2018-05-06T02:02:22.326Z,7.49
2018-05-06T02:03:22.249Z,8.35
2018-05-06T02:04:22.177Z,8.16
2018-05-06T02:05:22.124Z,8.64
2018-05-06T02:06:22.065Z,8.83
2018-05-06T02:07:21.997Z,8.64
2018-05-06T02:08:21.926Z,8.83
2018-05-06T02:09:21.863Z,8.93
2018-05-06T02:10:21.791Z,9.31
2018-05-06T02:11:21.737Z,9.50
2018-05-06T02:12:21.701Z,9.89
2018-05-06T02:13:21.604Z,9.89
2018-05-06T02:14:21.529Z,9.70
2018-05-06T02:15:21.465Z,9.79
2018-05-06T02:16:21.410Z,9.98
2018-05-06T02:17:21.339Z,10.27
2018-05-06T02:18:21.282Z,8.92
2018-05-06T02:19:21.215Z,7.39
2018-05-06T02:20:21.149Z,5.95
2018-05-06T02:21:21.083Z,5.27
2018-05-06T02:22:21.023Z,5.37
2018-05-06T02:23:20.961Z,5.18
2018-05-06T02:24:20.883Z,4.22
2018-05-06T02:25:20.841Z,3.64
2018-05-06T02:26:20.765Z,4.99
2018-05-06T02:27:20.705Z,4.60
2018-05-06T02:28:20.642Z,6.04
2018-05-06T02:29:20.557Z,6.81
2018-05-06T02:30:20.512Z,7.01
2018-05-06T02:31:41.423Z,8.64
2018-05-06T02:32:20.380Z,8.64
2018-05-06T02:33:41.301Z,9.59
2018-05-06T02:34:20.248Z,7.87
2018-05-06T02:35:41.161Z,7.39
2018-05-06T02:36:20.119Z,7.20
2018-05-06T02:37:20.048Z,7.77
2018-05-06T02:38:19.971Z,7.19
2018-05-06T02:39:19.906Z,6.43
2018-05-06T02:40:19.862Z,7.19
2018-05-06T02:41:19.783Z,7.10
2018-05-06T02:42:19.720Z,7.39
2018-05-06T02:43:19.663Z,8.06
2018-05-06T02:44:40.578Z,8.92
2018-05-06T02:45:19.538Z,10.36
2018-05-06T02:46:19.471Z,10.08
2018-05-06T02:47:19.409Z,10.75
2018-05-06T02:48:19.329Z,11.13
2018-05-06T02:49:19.261Z,11.52
2018-05-06T02:50:19.202Z,11.52
2018-05-06T02:51:19.148Z,11.61
2018-05-06T02:52:19.073Z,11.80
2018-05-06T02:53:19.026Z,11.80
2018-05-06T02:54:39.937Z,12.96
2018-05-06T02:55:18.887Z,13.05
2018-05-06T02:56:18.823Z,13.15
2018-05-06T02:57:18.757Z,13.15
2018-05-06T02:58:18.677Z,12.95
2018-05-06T02:59:18.630Z,11.80
2018-05-06T03:00:18.561Z,11.80
2018-05-06T03:01:18.498Z,11.41
2018-05-06T03:02:18.418Z,9.97
2018-05-06T03:03:18.357Z,8.06
2018-05-06T03:04:18.297Z,8.06
2018-05-06T03:05:18.231Z,9.21
2018-05-06T03:06:18.163Z,10.55
2018-05-06T03:07:18.088Z,10.46
2018-05-06T03:08:18.039Z,9.69
2018-05-06T03:09:17.963Z,9.97
2018-05-06T03:10:17.896Z,9.59
2018-05-06T03:11:17.837Z,9.01
2018-05-06T03:12:17.867Z,8.34
2018-05-06T03:13:17.718Z,8.73
2018-05-06T03:14:17.641Z,9.11
2018-05-06T03:15:17.608Z,8.44
2018-05-06T03:16:38.575Z,8.73
2018-05-06T03:17:17.464Z,9.30
2018-05-06T03:18:17.386Z,9.78
2018-05-06T03:19:17.328Z,10.55
2018-05-06T03:20:17.261Z,9.78
2018-05-06T03:21:17.180Z,10.55
2018-05-06T03:22:17.127Z,10.26
2018-05-06T03:24:51.992Z,11.99
2018-05-06T03:25:51.899Z,12.66
2018-05-06T03:27:47.203Z,14.10
2018-05-06T03:28:47.100Z,14.10
2018-05-06T03:30:42.407Z,14.67
2018-05-06T03:31:42.309Z,15.06
2018-05-06T03:33:37.633Z,15.25
2018-05-06T03:34:37.508Z,16.02
2018-05-06T03:36:32.771Z,16.69
2018-05-06T03:37:32.711Z,17.84
2018-05-06T03:39:28.023Z,18.99
2018-05-06T03:40:27.905Z,19.57
2018-05-06T03:42:23.319Z,21.49
2018-05-06T03:43:23.099Z,21.11
2018-05-06T03:45:18.446Z,21.39
2018-05-06T03:46:18.334Z,21.30
2018-05-06T03:48:13.613Z,20.81
2018-05-06T03:49:13.529Z,20.62
2018-05-06T03:51:29.827Z,21.58
2018-05-06T03:53:04.060Z,20.34
2018-05-06T03:54:03.978Z,21.11
2018-05-06T03:56:00.080Z,20.53
2018-05-06T03:56:59.966Z,20.72
2018-05-06T03:58:56.069Z,15.82
2018-05-06T03:59:55.991Z,14.95
2018-05-06T04:01:51.311Z,14.19
2018-05-06T04:02:51.205Z,14.19
2018-05-06T04:04:46.495Z,15.05
2018-05-06T04:07:01.769Z,16.97
2018-05-06T04:08:01.659Z,17.93
2018-05-06T04:11:33.130Z,20.23
2018-05-06T04:12:33.040Z,20.52
2018-05-06T04:14:28.367Z,21.28
2018-05-06T04:15:28.258Z,20.52
2018-05-06T04:17:23.550Z,19.75
2018-05-06T04:18:23.462Z,20.14
2018-05-06T04:20:19.657Z,21.38
2018-05-06T04:21:19.635Z,21.86
2018-05-06T04:23:14.844Z,21.95
2018-05-06T04:24:14.745Z,21.95
2018-05-06T04:26:12.353Z,21.86
2018-05-06T04:27:12.267Z,21.38
2018-05-06T04:29:07.585Z,20.14
2018-05-06T04:30:07.472Z,21.00
2018-05-06T04:32:02.803Z,21.19
2018-05-06T04:33:02.687Z,21.48
2018-05-06T04:34:02.607Z,21.09
2018-05-06T04:35:02.546Z,19.46
2018-05-06T04:36:02.495Z,18.88
2018-05-06T04:37:02.410Z,18.31
2018-05-06T04:38:02.357Z,16.96
2018-05-06T04:39:23.289Z,15.43
2018-05-06T04:40:02.235Z,11.11
2018-05-06T04:41:02.164Z,8.34
2018-05-06T04:42:02.105Z,7.18
2018-05-06T04:43:02.020Z,7.28
2018-05-06T04:44:01.966Z,9.48
2018-05-06T04:45:01.907Z,10.83
2018-05-06T04:46:01.832Z,11.88
2018-05-06T04:47:22.751Z,12.07
2018-05-06T04:48:01.696Z,13.23
2018-05-06T04:49:01.638Z,14.09
2018-05-06T04:50:22.551Z,14.56
2018-05-06T04:51:01.521Z,15.23
2018-05-06T04:52:01.439Z,15.72
2018-05-06T04:53:01.359Z,16.39
2018-05-06T04:54:01.295Z,17.25
2018-05-06T04:55:01.227Z,18.02
2018-05-06T04:56:01.165Z,17.93
2018-05-06T04:57:01.104Z,16.29
2018-05-06T04:58:01.051Z,15.14
2018-05-06T04:59:00.975Z,14.47
2018-05-06T05:00:00.911Z,14.76
2018-05-06T05:01:00.875Z,15.62
2018-05-06T05:02:00.783Z,16.19
2018-05-06T05:03:21.699Z,17.35
2018-05-06T05:04:00.650Z,18.02
2018-05-06T05:05:00.589Z,18.31
2018-05-06T05:06:00.519Z,18.41
2018-05-06T05:07:00.468Z,19.46
2018-05-06T05:08:00.390Z,20.52
2018-05-06T05:09:00.318Z,21.28
2018-05-06T05:10:00.261Z,21.48
2018-05-06T05:11:00.191Z,21.67
2018-05-06T05:12:00.123Z,21.67
2018-05-06T05:13:00.063Z,20.52
2018-05-06T05:14:00.005Z,18.79
2018-05-06T05:14:59.920Z,17.73
2018-05-06T05:15:59.851Z,17.15
2018-05-06T05:16:59.791Z,16.97
2018-05-06T05:17:59.723Z,17.06
2018-05-06T05:18:59.675Z,17.83
2018-05-06T05:19:59.605Z,18.60
2018-05-06T05:20:59.533Z,17.93
2018-05-06T05:21:59.465Z,18.41
2018-05-06T05:22:59.399Z,18.02
2018-05-06T05:23:59.335Z,18.02
2018-05-06T05:24:59.306Z,18.02
2018-05-06T05:25:59.204Z,17.93
2018-05-06T05:26:59.139Z,18.02
2018-05-06T05:27:59.075Z,17.74
2018-05-06T05:29:19.982Z,17.93
2018-05-06T05:29:58.950Z,17.93
2018-05-06T05:30:58.869Z,18.22
2018-05-06T05:31:58.797Z,18.70
2018-05-06T05:32:58.741Z,19.65
2018-05-06T05:33:58.686Z,19.94
2018-05-06T05:34:58.615Z,19.56
2018-05-06T05:35:58.551Z,20.04
2018-05-06T05:36:58.556Z,20.81
2018-05-06T05:37:58.412Z,21.48
2018-05-06T05:38:58.348Z,21.28
2018-05-06T05:39:58.283Z,21.57
2018-05-06T05:40:58.212Z,21.38
2018-05-06T05:41:58.157Z,21.57
2018-05-06T05:42:58.076Z,22.54
2018-05-06T05:43:58.037Z,23.79
2018-05-06T05:44:57.954Z,24.65
2018-05-06T05:45:57.892Z,25.13
2018-05-06T05:46:57.853Z,25.71
2018-05-06T05:49:31.805Z,26.19
2018-05-06T05:50:31.695Z,26.76
2018-05-06T05:52:47.979Z,27.34
2018-05-06T05:54:43.238Z,28.20
2018-05-06T05:56:17.519Z,29.06
2018-05-06T05:57:17.423Z,28.88
2018-05-06T05:59:12.727Z,29.74
2018-05-06T06:00:12.614Z,29.64
2018-05-06T06:02:07.922Z,30.22
2018-05-06T06:03:07.809Z,30.22
2018-05-06T06:05:03.131Z,28.11
2018-05-06T06:06:03.032Z,28.01
2018-05-06T06:07:58.377Z,27.25
2018-05-06T06:08:58.246Z,23.88
2018-05-06T06:10:53.583Z,23.97
2018-05-06T06:11:53.435Z,25.90
2018-05-06T06:13:48.749Z,26.19
2018-05-06T06:14:48.622Z,27.25
2018-05-06T06:16:43.917Z,27.82
2018-05-06T06:17:43.820Z,27.53
2018-05-06T06:19:40.002Z,27.82
2018-05-06T06:20:39.856Z,28.30
2018-05-06T06:22:35.144Z,29.16
2018-05-06T06:23:35.052Z,29.55
2018-05-06T06:25:31.219Z,30.90
2018-05-06T06:26:31.115Z,31.00
2018-05-06T06:28:26.436Z,31.96
2018-05-06T06:29:26.325Z,32.64
2018-05-06T06:30:26.239Z,30.60
2018-05-06T06:31:26.182Z,30.89
2018-05-06T06:32:26.124Z,31.37
2018-05-06T06:33:26.060Z,30.81
2018-05-06T06:34:25.998Z,30.99
2018-05-06T06:35:25.923Z,31.10
2018-05-06T06:36:25.873Z,31.96
2018-05-06T06:37:25.811Z,33.40
2018-05-06T06:38:25.788Z,34.27
2018-05-06T06:39:25.668Z,35.34
2018-05-06T06:40:25.604Z,36.11
2018-05-06T06:41:25.557Z,36.40
2018-05-06T06:42:25.490Z,37.26
2018-05-06T06:43:25.422Z,38.22
2018-05-06T06:44:25.356Z,38.89
2018-05-06T06:46:59.345Z,39.18
2018-05-06T06:47:59.248Z,39.66
2018-05-06T06:49:54.521Z,41.50
2018-05-06T06:50:54.449Z,42.27
2018-05-06T06:52:49.772Z,43.04
2018-05-06T06:53:49.649Z,43.33
2018-05-06T06:55:45.056Z,43.81
2018-05-06T06:56:44.871Z,43.81
2018-05-06T06:59:01.136Z,43.71
2018-05-06T07:00:35.463Z,43.91
2018-05-06T07:01:35.355Z,44.20
2018-05-06T07:03:30.637Z,44.20
2018-05-06T07:04:30.544Z,44.96
2018-05-06T07:06:26.697Z,45.45
2018-05-06T07:07:26.590Z,45.35
2018-05-06T07:09:21.922Z,45.73
2018-05-06T07:10:21.800Z,45.76
2018-05-06T07:12:17.085Z,46.04
2018-05-06T07:13:17.000Z,46.43
2018-05-06T07:15:12.330Z,46.33
2018-05-06T07:16:12.232Z,46.62
2018-05-06T07:18:28.492Z,46.53
2018-05-06T07:20:02.744Z,47.00
2018-05-06T07:21:02.681Z,47.20
2018-05-06T07:22:57.967Z,47.68
2018-05-06T07:23:57.887Z,47.68
2018-05-06T07:25:53.193Z,47.87
2018-05-06T07:26:53.082Z,47.99
2018-05-06T07:28:48.409Z,48.25
2018-05-06T07:29:48.342Z,48.45
2018-05-06T07:31:43.557Z,48.74
2018-05-06T07:32:43.475Z,49.31
2018-05-06T07:34:38.783Z,49.69
2018-05-06T07:35:38.695Z,49.89
2018-05-06T07:37:55.004Z,49.41
2018-05-06T07:39:30.090Z,49.89
2018-05-06T07:40:30.011Z,49.89
2018-05-06T07:42:25.315Z,49.15
2018-05-06T07:43:25.205Z,49.53
2018-05-06T07:45:20.557Z,49.79
2018-05-06T07:46:20.440Z,49.69
2018-05-06T07:48:36.710Z,49.69
2018-05-06T07:50:10.962Z,49.89
2018-05-06T07:51:10.884Z,50.08
2018-05-06T07:53:06.191Z,50.08
2018-05-06T07:54:06.101Z,50.08
2018-05-06T07:56:01.380Z,49.91
2018-05-06T07:57:01.305Z,49.91
2018-05-06T07:58:56.622Z,50.10
2018-05-06T07:59:56.493Z,50.01
2018-05-06T08:01:51.841Z,50.01
2018-05-06T08:02:51.730Z,50.13
2018-05-06T08:04:47.011Z,50.68
2018-05-06T08:07:20.965Z,50.61
2018-05-06T08:08:20.857Z,50.32
2018-05-06T08:10:16.121Z,50.61
2018-05-06T08:11:16.054Z,50.32
2018-05-06T08:13:12.260Z,51.19
2018-05-06T08:14:12.159Z,51.29
2018-05-06T08:16:08.316Z,51.19
2018-05-06T08:17:08.207Z,51.45
2018-05-06T08:19:03.512Z,51.93
2018-05-06T08:20:03.420Z,51.67
2018-05-06T08:21:58.725Z,51.57
2018-05-06T08:22:58.631Z,51.09
2018-05-06T08:24:54.697Z,51.29
2018-05-06T08:27:10.857Z,51.09
2018-05-06T08:28:10.741Z,50.93
2018-05-06T08:30:06.032Z,51.67
2018-05-06T08:32:21.329Z,51.79
2018-05-06T08:33:21.221Z,51.60
2018-05-06T08:35:16.546Z,51.31
2018-05-06T08:36:16.440Z,51.50
2018-05-06T08:38:11.720Z,51.89
2018-05-06T08:39:11.646Z,52.34
2018-05-06T08:41:09.360Z,52.47
2018-05-06T08:42:09.244Z,52.37
2018-05-06T08:44:04.510Z,52.37
2018-05-06T08:46:20.687Z,51.70
2018-05-06T08:47:20.565Z,52.30
2018-05-06T08:49:16.707Z,52.59
2018-05-06T08:50:16.600Z,51.62
2018-05-06T08:52:11.938Z,52.49
2018-05-06T08:53:11.820Z,52.40
2018-05-06T08:55:07.098Z,52.40
2018-05-06T08:56:07.018Z,52.40
2018-05-06T08:58:02.415Z,52.30
2018-05-06T08:59:02.260Z,52.49
2018-05-06T09:00:57.564Z,52.30
2018-05-06T09:01:57.470Z,52.30
2018-05-06T09:03:52.753Z,52.33
2018-05-06T09:04:52.661Z,52.42
2018-05-06T09:06:47.919Z,52.42
2018-05-06T09:07:47.842Z,52.42
2018-05-06T09:09:44.047Z,52.42
2018-05-06T09:10:43.938Z,52.42
2018-05-06T09:12:40.036Z,52.61
2018-05-06T09:14:56.201Z,52.61
2018-05-06T09:15:56.090Z,53.00
2018-05-06T09:17:51.462Z,53.87
2018-05-06T09:18:51.295Z,54.06
2018-05-06T09:21:07.532Z,52.91
2018-05-06T09:22:41.842Z,53.00
2018-05-06T09:23:41.736Z,53.00
2018-05-06T09:25:37.144Z,52.61
2018-05-06T09:26:36.937Z,52.81
2018-05-06T09:28:32.220Z,52.61
2018-05-06T09:29:32.146Z,52.83
2018-05-06T09:31:27.454Z,53.03
2018-05-06T09:33:42.739Z,53.00
2018-05-06T09:34:42.620Z,53.00
2018-05-06T09:36:38.732Z,53.48
2018-05-06T09:37:38.693Z,53.09
2018-05-06T09:39:33.945Z,53.22
2018-05-06T09:41:49.196Z,53.13
2018-05-06T09:42:49.057Z,53.13
2018-05-06T09:43:49.016Z,53.22
2018-05-06T09:44:48.950Z,53.13
2018-05-06T09:45:48.889Z,53.22
2018-05-06T09:46:48.829Z,53.41
2018-05-06T09:48:09.756Z,53.61
2018-05-06T09:48:48.691Z,53.99
2018-05-06T09:49:48.648Z,53.41
2018-05-06T09:50:48.584Z,53.51
2018-05-06T09:51:48.510Z,52.83
2018-05-06T09:52:48.457Z,53.05
2018-05-06T09:54:09.385Z,53.05
2018-05-06T09:54:48.337Z,52.95
2018-05-06T09:57:22.448Z,52.76
2018-05-06T09:58:22.241Z,52.76
2018-05-06T10:00:17.519Z,52.28
2018-05-06T10:01:17.443Z,52.86
2018-05-06T10:03:12.885Z,53.53
2018-05-06T10:04:12.648Z,53.53
2018-05-06T10:06:07.916Z,53.73
2018-05-06T10:08:23.199Z,53.83
2018-05-06T10:10:38.455Z,55.05
2018-05-06T10:11:38.362Z,54.76
2018-05-06T10:13:33.662Z,54.66
2018-05-06T10:14:33.567Z,54.11
2018-05-06T10:16:49.860Z,54.21
2018-05-06T10:18:24.102Z,54.60
2018-05-06T10:20:39.376Z,53.63
2018-05-06T10:21:39.295Z,53.92
2018-05-06T10:23:35.487Z,54.05
2018-05-06T10:24:35.348Z,54.14
2018-05-06T10:25:35.300Z,54.05
2018-05-06T10:26:35.225Z,53.85
2018-05-06T10:27:35.178Z,54.14
2018-05-06T10:28:35.119Z,54.05
2018-05-06T10:29:35.048Z,54.05
2018-05-06T10:30:34.998Z,53.95
2018-05-06T10:31:34.931Z,53.85
2018-05-06T10:32:34.874Z,53.56
2018-05-06T10:33:34.811Z,53.17
2018-05-06T10:34:34.746Z,53.56
2018-05-06T10:35:34.691Z,53.85
2018-05-06T10:36:34.632Z,54.05
2018-05-06T10:37:34.611Z,54.05
2018-05-06T10:38:34.509Z,54.14
2018-05-06T10:39:34.443Z,54.05
2018-05-06T10:40:34.394Z,54.14
2018-05-06T10:41:34.320Z,53.95
2018-05-06T10:42:34.266Z,54.14
2018-05-06T10:43:34.206Z,53.69
2018-05-06T10:44:34.199Z,53.59
2018-05-06T10:45:34.093Z,54.07
2018-05-06T10:46:34.027Z,53.85
2018-05-06T10:47:33.970Z,54.53
2018-05-06T10:48:33.911Z,54.72
2018-05-06T10:49:33.853Z,54.72
2018-05-06T10:50:33.791Z,54.72
2018-05-06T10:51:33.735Z,54.82
2018-05-06T10:52:33.720Z,54.72
2018-05-06T10:53:33.616Z,54.82
2018-05-06T10:54:33.549Z,54.62
2018-05-06T10:55:54.471Z,55.30
2018-05-06T10:56:54.410Z,55.40
2018-05-06T10:57:33.357Z,55.40
2018-05-06T10:58:33.298Z,55.40
2018-05-06T10:59:54.227Z,55.49
2018-05-06T11:00:33.171Z,55.40
2018-05-06T11:01:33.112Z,55.10
2018-05-06T11:02:33.067Z,54.72
2018-05-06T11:03:33.005Z,54.91
2018-05-06T11:04:32.944Z,54.82
2018-05-06T11:05:32.894Z,54.43
2018-05-06T11:06:32.810Z,54.43
2018-05-06T11:07:32.763Z,54.33
2018-05-06T11:08:32.696Z,54.62
2018-05-06T11:09:32.628Z,53.75
2018-05-06T11:10:32.572Z,54.05
2018-05-06T11:11:32.517Z,54.62
2018-05-06T11:12:32.451Z,54.43
2018-05-06T11:13:32.384Z,54.33
2018-05-06T11:14:32.325Z,54.53
2018-05-06T11:15:32.275Z,53.95
2018-05-06T11:16:32.206Z,53.85
2018-05-06T11:17:32.149Z,53.56
2018-05-06T11:18:32.085Z,52.89
2018-05-06T11:19:32.021Z,52.79
2018-05-06T11:20:31.967Z,53.27
2018-05-06T11:21:52.894Z,53.47
2018-05-06T11:22:31.843Z,53.47
2018-05-06T11:23:31.778Z,53.66
2018-05-06T11:24:31.712Z,53.75
2018-05-06T11:25:31.656Z,53.69
2018-05-06T11:26:31.608Z,54.17
2018-05-06T11:27:31.534Z,53.49
2018-05-06T11:28:31.471Z,53.49
2018-05-06T11:29:31.409Z,53.11
2018-05-06T11:30:31.353Z,53.11
2018-05-06T11:31:31.297Z,52.91
2018-05-06T11:32:31.237Z,53.39
2018-05-06T11:33:31.181Z,53.59
2018-05-06T11:34:31.120Z,53.97
2018-05-06T11:35:31.052Z,53.69
2018-05-06T11:36:30.998Z,54.65
2018-05-06T11:37:51.934Z,54.27
2018-05-06T11:38:30.865Z,54.55
2018-05-06T11:39:30.818Z,54.55
2018-05-06T11:40:30.744Z,54.17
2018-05-06T11:41:30.697Z,54.36
2018-05-06T11:42:30.628Z,54.46
2018-05-06T11:43:30.606Z,54.36
2018-05-06T11:44:30.504Z,54.46
2018-05-06T11:45:30.448Z,54.65
2018-05-06T11:46:30.387Z,54.55
2018-05-06T11:47:30.319Z,54.46
2018-05-06T11:48:30.270Z,54.68
2018-05-06T11:49:30.199Z,54.36
2018-05-06T11:50:30.152Z,54.19
2018-05-06T11:51:30.100Z,54.19
2018-05-06T11:52:30.019Z,54.10
2018-05-06T11:53:29.953Z,54.49
2018-05-06T11:54:29.899Z,54.00
2018-05-06T11:55:29.853Z,53.81
2018-05-06T11:56:29.778Z,54.00
2018-05-06T11:57:29.723Z,53.81
2018-05-06T11:58:29.664Z,53.81
2018-05-06T11:59:29.586Z,54.19
2018-05-06T12:00:29.541Z,53.61
2018-05-06T12:01:29.494Z,53.81
2018-05-06T12:02:50.410Z,54.19
2018-05-06T12:03:29.351Z,53.78
2018-05-06T12:04:29.297Z,53.91
2018-05-06T12:05:29.246Z,53.71
2018-05-06T12:06:29.171Z,53.61
2018-05-06T12:07:50.099Z,53.42
2018-05-06T12:08:29.057Z,54.00
2018-05-06T12:09:28.996Z,54.19
2018-05-06T12:10:28.921Z,54.19
2018-05-06T12:11:28.861Z,54.29
2018-05-06T12:12:28.803Z,54.39
2018-05-06T12:13:28.746Z,54.39
2018-05-06T12:14:28.689Z,54.68
2018-05-06T12:15:28.623Z,54.10
2018-05-06T12:16:28.570Z,54.39
2018-05-06T12:17:28.504Z,54.29
2018-05-06T12:18:28.445Z,54.10
2018-05-06T12:19:28.389Z,53.71
2018-05-06T12:20:28.307Z,53.52
2018-05-06T12:21:28.250Z,53.33
2018-05-06T12:22:28.188Z,53.52
2018-05-06T12:23:28.126Z,53.42
2018-05-06T12:24:28.078Z,53.71
2018-05-06T12:25:28.016Z,53.81
2018-05-06T12:26:27.964Z,53.81
2018-05-06T12:27:27.890Z,54.19
2018-05-06T12:28:27.829Z,54.19
2018-05-06T12:29:27.766Z,53.81
2018-05-06T12:30:27.714Z,54.29
2018-05-06T12:31:27.653Z,54.39
2018-05-06T12:32:27.599Z,54.29
2018-05-06T12:33:27.543Z,54.19
2018-05-06T12:34:27.459Z,53.91
2018-05-06T12:35:27.395Z,53.71
2018-05-06T12:36:27.355Z,54.29
2018-05-06T12:37:27.289Z,54.13
2018-05-06T12:38:27.232Z,53.25
2018-05-06T12:39:27.170Z,53.55
2018-05-06T12:40:27.101Z,53.33
2018-05-06T12:41:27.075Z,54.22
2018-05-06T12:42:26.986Z,53.83
2018-05-06T12:43:27.008Z,53.74
2018-05-06T12:44:26.866Z,53.35
2018-05-06T12:45:26.795Z,53.35
2018-05-06T12:46:26.746Z,53.55
2018-05-06T12:47:26.671Z,53.35
2018-05-06T12:48:26.619Z,53.16
2018-05-06T12:49:26.624Z,52.97
2018-05-06T12:50:26.498Z,53.16
2018-05-06T12:51:26.438Z,53.16
2018-05-06T12:52:26.381Z,53.06
2018-05-06T12:53:26.317Z,53.16
2018-05-06T12:54:26.258Z,52.67
2018-05-06T12:55:26.191Z,52.77
2018-05-06T12:56:26.127Z,52.00
2018-05-06T12:57:26.063Z,51.42
2018-05-06T12:58:26.017Z,51.61
2018-05-06T12:59:25.958Z,51.90
2018-05-06T13:00:25.885Z,51.42
2018-05-06T13:01:25.841Z,51.71
2018-05-06T13:02:25.833Z,51.51
2018-05-06T13:03:25.707Z,51.61
2018-05-06T13:04:25.654Z,51.61
2018-05-06T13:05:25.591Z,51.64
2018-05-06T13:06:46.522Z,51.64
2018-05-06T13:07:46.454Z,51.73
2018-05-06T13:08:46.405Z,50.86
2018-05-06T13:09:25.353Z,50.38
2018-05-06T13:10:25.282Z,50.28
2018-05-06T13:11:25.276Z,49.80
2018-05-06T13:12:25.172Z,50.57
2018-05-06T13:13:25.108Z,49.63
2018-05-06T13:14:46.034Z,50.31
2018-05-06T13:15:24.984Z,50.12
2018-05-06T13:16:24.918Z,49.82
2018-05-06T13:17:24.866Z,49.82
2018-05-06T13:18:24.797Z,49.82
2018-05-06T13:19:24.745Z,49.92
2018-05-06T13:20:24.677Z,49.73
2018-05-06T13:21:24.628Z,49.82
2018-05-06T13:22:24.556Z,49.34
2018-05-06T13:23:24.495Z,49.44
2018-05-06T13:24:24.439Z,49.63
2018-05-06T13:25:24.386Z,49.44
2018-05-06T13:26:24.325Z,49.44
2018-05-06T13:27:24.257Z,49.24
2018-05-06T13:28:45.187Z,49.54
2018-05-06T13:29:24.140Z,49.73
2018-05-06T13:30:24.082Z,49.82
2018-05-06T13:31:24.025Z,49.63
2018-05-06T13:32:23.954Z,49.82
2018-05-06T13:33:23.895Z,49.73
2018-05-06T13:34:23.834Z,50.12
2018-05-06T13:35:23.785Z,49.92
2018-05-06T13:36:23.714Z,49.82
2018-05-06T13:37:23.654Z,49.46
2018-05-06T13:38:23.597Z,49.44
2018-05-06T13:39:23.541Z,49.37
2018-05-06T13:40:44.471Z,49.46
2018-05-06T13:41:23.424Z,49.34
2018-05-06T13:42:23.351Z,49.73
2018-05-06T13:43:23.307Z,49.92
2018-05-06T13:44:23.235Z,49.82
2018-05-06T13:45:23.178Z,49.85
2018-05-06T13:46:23.129Z,49.82
2018-05-06T13:47:23.068Z,49.85
2018-05-06T13:48:23.000Z,50.04
2018-05-06T13:49:22.943Z,49.75
2018-05-06T13:50:22.882Z,49.75
2018-05-06T13:51:43.817Z,49.85
2018-05-06T13:52:22.767Z,49.46
2018-05-06T13:53:22.697Z,49.46
2018-05-06T13:54:22.639Z,49.85
2018-05-06T13:55:22.600Z,49.75
2018-05-06T13:56:22.545Z,50.04
2018-05-06T13:57:43.454Z,49.75
2018-05-06T13:58:22.405Z,49.27
2018-05-06T13:59:22.347Z,49.85
2018-05-06T14:00:22.282Z,49.85
2018-05-06T14:01:22.319Z,50.52
2018-05-06T14:02:22.163Z,50.72
2018-05-06T14:03:22.114Z,50.70
2018-05-06T14:04:22.063Z,50.92
2018-05-06T14:05:21.986Z,50.60
2018-05-06T14:06:21.927Z,50.70
2018-05-06T14:07:21.870Z,50.62
2018-05-06T14:08:21.809Z,50.82
2018-05-06T14:09:21.744Z,50.79
2018-05-06T14:10:21.682Z,50.72
2018-05-06T14:11:21.622Z,50.79
2018-05-06T14:12:21.558Z,50.82
2018-05-06T14:13:21.512Z,50.79
2018-05-06T14:14:21.439Z,50.70
2018-05-06T14:15:21.394Z,51.86
2018-05-06T14:16:21.328Z,51.68
2018-05-06T14:17:21.264Z,51.56
2018-05-06T14:18:21.202Z,50.92
2018-05-06T14:19:21.144Z,50.72
2018-05-06T14:20:21.079Z,50.62
2018-05-06T14:21:21.021Z,50.52
2018-05-06T14:22:20.966Z,50.72
2018-05-06T14:23:20.903Z,50.60
2018-05-06T14:24:20.835Z,50.50
2018-05-06T14:25:20.789Z,50.79
2018-05-06T14:26:20.726Z,50.98
2018-05-06T14:27:20.668Z,51.76
2018-05-06T14:28:20.591Z,51.28
2018-05-06T14:29:20.542Z,51.08
2018-05-06T14:30:20.484Z,51.37
2018-05-06T14:31:20.414Z,51.18
2018-05-06T14:32:20.357Z,51.76
2018-05-06T14:33:20.298Z,51.47
2018-05-06T14:34:41.225Z,51.08
2018-05-06T14:35:20.171Z,51.76
2018-05-06T14:36:20.111Z,51.76
2018-05-06T14:37:20.048Z,51.76
2018-05-06T14:38:19.989Z,51.76
2018-05-06T14:39:19.919Z,52.14
2018-05-06T14:40:19.885Z,52.14
2018-05-06T14:41:19.814Z,52.73
2018-05-06T14:42:19.743Z,52.53
2018-05-06T14:43:19.685Z,52.63
2018-05-06T14:44:19.623Z,52.92
2018-05-06T14:45:19.565Z,53.02
2018-05-06T14:46:40.512Z,53.11
2018-05-06T14:47:19.448Z,52.63
2018-05-06T14:48:19.388Z,52.92
2018-05-06T14:49:19.315Z,53.02
2018-05-06T14:50:19.270Z,53.02
2018-05-06T14:51:19.195Z,52.92
2018-05-06T14:52:19.169Z,53.02
2018-05-06T14:53:19.071Z,53.02
2018-05-06T14:54:19.178Z,52.63
2018-05-06T14:55:18.952Z,53.02
2018-05-06T14:56:39.885Z,52.73
2018-05-06T14:57:18.837Z,52.82
2018-05-06T14:58:18.775Z,52.82
2018-05-06T14:59:18.710Z,52.82
2018-05-06T15:00:18.658Z,53.02
2018-05-06T15:01:18.599Z,53.02
2018-05-06T15:02:18.531Z,53.02
2018-05-06T15:03:18.459Z,52.82
2018-05-06T15:04:18.412Z,52.82